• Join FlightAware (Why Join?)
  • Login
  • US Flag 
06:27AM EST


 

Airport Tracker/Info


-or-


 

Live Flight TrackerFlight Track Log ✈ ASH3770 ✈ 03-Jul-2013 ✈ KIAD - KORF

Flight Track Log - Related Links

Times and Time Zones

All times are in EDT time to prevent confusion due to time zone crossing. See the ASH3770 flight status page for this flight to view local times or setup timezone preferences in your user account.

Time Position Orientation Groundspeed Altitude Reporting Facility
EDT Latitude Longitude Course Direction KTS MPH feet Rate Location/Type
03:43PM 38.9500 -77.5167 111° Southeast 172 198 2,300  Level Potomac TRACON
03:44PM 39.0000 -77.5833 314° West 259 298 4,000 1,680 Climbing Potomac TRACON
03:45PM 38.7370 -77.3272 124° Southeast  Level Estimated
03:45PM 39.0500 -77.6500 314° West 284 327 5,700  Level Potomac TRACON
03:46PM 38.7086 -77.2338 111° Southeast  Level FlightAware Approximate
03:46PM 39.1167 -77.7000 330° Northwest 302 348 8,600  Level Potomac TRACON
03:47PM 38.6802 -77.1405 111° Southeast  Level FlightAware Approximate
03:47PM 39.1667 -77.6167 52° Northeast 328 377 10,100  Level Potomac TRACON
03:48PM 38.6518 -77.0473 111° Southeast  Level FlightAware Approximate
03:48PM 39.2000 -77.5000 70° East 347 399 10,100  Level Potomac TRACON
03:49PM 39.2000 -77.3667 90° East 358 412 10,100 -60 Level Potomac TRACON
03:50PM 39.1667 -77.2500 110° East 350 403 10,000 480 Descending Potomac TRACON
03:51PM 39.1333 -77.1333 110° East 339 390 11,100 1,500 Climbing Potomac TRACON
03:51PM 39.1167 -77.0333 102° East 355 409 12,900 960 Climbing Potomac TRACON
03:52PM 39.0500 -76.9333 131° Southeast 349 402 13,000  Climbing Potomac TRACON
03:53PM 38.9833 -76.8667 142° Southeast 331 381 13,000  Level Potomac TRACON
03:55PM 38.8833 -76.8333 165° South 340 391 13,100  Climbing Potomac TRACON
03:56PM 38.8000 -76.8000 163° South 335 386 13,100 300 Level Potomac TRACON
03:57PM 38.6928 -76.7728 169° South 337 388 13,900 420 Climbing Washington Center
03:58PM 38.6036 -76.7419 165° South 337 388 14,100  Climbing Washington Center
04:00PM 38.4225 -76.7100 172° South 332 382 14,000 -60 Descending Washington Center
04:01PM 38.3161 -76.6953 174° South 332 382 14,000  Level Washington Center
04:02PM 38.2289 -76.6650 165° South 332 382 14,000  Level Washington Center
04:03PM 38.1414 -76.6664 181° South 327 376 14,000  Level Washington Center
04:04PM 38.0494 -76.6675 181° South 327 376 14,100 -60 Climbing Washington Center
04:05PM 37.9597 -76.6742 183° South 327 376 13,900 -660 Descending Washington Center
04:06PM 37.8722 -76.6783 182° South 327 376 12,800 -1,200 Descending Washington Center
04:07PM 37.8183 -76.6406 151° Southeast 325 374 12,000 -1,020 Descending Washington Center
04:08PM 37.7378 -76.5319 133° Southeast 306 352 10,900 -900 Descending Washington Center
04:09PM 37.6781 -76.4472 132° Southeast 311 358 10,000 -480 Descending Washington Center
04:10PM 37.6117 -76.3600 134° Southeast 317 365 10,000  Level Washington Center
04:11PM 37.5497 -76.2992 142° Southeast 317 365 10,000 -720 Level Washington Center
04:12PM 37.4642 -76.2617 161° South 275 316 8,600 -1,380 Descending Washington Center
04:13PM 37.4061 -76.2297 156° South 286 329 7,300 -1,680 Descending Washington Center
04:14PM 37.3269 -76.1900 158° South 275 316 5,300 -1,680 Descending Washington Center
04:15PM 37.2644 -76.1608 160° South 261 300 4,000 -660 Descending Washington Center
04:16PM 37.1958 -76.1264 158° South 259 298 4,000 -120 Level Washington Center
04:17PM 37.1461 -76.0608 134° Southeast 231 266 3,800 -600 Descending Washington Center
04:18PM 37.1003 -75.9981 132° Southeast 213 245 2,700 -960 Descending Washington Center
04:19PM 37.0711 -76.0319 223° Southwest 199 229 2,000 -540 Descending Washington Center
04:20PM 37.0231 -76.0783 218° Southwest 197 227 1,800 -240 Descending Washington Center